This is the latest recevied weather packets stored in our database for station/object GW1498. If no packets are shown the sender has not sent any weather packets the latest 10 day(s).
| Time | Temp. | Humidity | Pressure | Rain* | Wind** | Luminosity | Snow |
|---|---|---|---|---|---|---|---|
| 1777777782 | 3.33° C | 76% | 1014.9 hPa | 0 mm | - | - | - |
| 1777775614 | 3.33° C | 71% | 1014.9 hPa | 0 mm | - | - | - |
| 1777770939 | 4.44° C | 65% | 1014.5 hPa | 0 mm | - | - | - |
| 1777767495 | 5.56° C | 57% | 1013.8 hPa | 0 mm | - | - | - |
| 1777766974 | 5.56° C | 55% | 1013.8 hPa | 0 mm | - | - | - |
| 1777497889 | 14.44° C | 91% | 1006.7 hPa | 12.19 mm | - | - | - |
| 1777485267 | 16.11° C | 81% | 1009.4 hPa | 1.27 mm | - | - | - |
| 1777481668 | 15.56° C | 82% | 1010.4 hPa | 1.27 mm | - | - | - |
| 1777476262 | 14.44° C | 93% | 1012.1 hPa | 1.27 mm | - | - | - |
| 1777475927 | 14.44° C | 93% | 1012.1 hPa | 1.27 mm | - | - | - |
| 1777469074 | 13.89° C | 87% | 1013.2 hPa | 0.25 mm | - | - | - |
| 1777467288 | 13.89° C | 86% | 1012.1 hPa | 0 mm | - | - | - |
| 1777466905 | 13.89° C | 86% | 1012.1 hPa | 0 mm | - | - | - |
| 1777445669 | 15.56° C | 79% | 1013.8 hPa | 0 mm | - | - | - |
| 1777445330 | 15.56° C | 79% | 1013.8 hPa | 0 mm | - | - | - |
| 1777443878 | 15.56° C | 79% | 1014.5 hPa | 0 mm | - | - | - |
| 1777438126 | 16.11° C | 77% | 1015.5 hPa | 0 mm | - | - | - |
| 1777436667 | 16.11° C | 77% | 1015.9 hPa | 0 mm | - | - | - |
| 1777433447 | 16.67° C | 78% | 1016.2 hPa | 5.08 mm | - | - | - |
| 1777431256 | 16.67° C | 79% | 1016.2 hPa | 5.08 mm | - | - | - |
| 1777421908 | 17.22° C | 76% | 1015.2 hPa | 5.08 mm | - | - | - |
| 1777421013 | 17.78° C | 75% | 1014.9 hPa | 5.08 mm | - | - | - |
| 1777418667 | 18.33° C | 72% | 1015.5 hPa | 5.08 mm | - | - | - |
| 1777414910 | 18.89° C | 71% | 1015.9 hPa | 5.08 mm | - | - | - |
| 1777414553 | 18.89° C | 71% | 1015.9 hPa | 5.08 mm | - | - | - |
* Rain since midnight (hover to see other rain measurements)
** Current wind speed in m/s (hover to see current wind gust speed)